createdAt,value
2019-04-06T00:00:37.523Z,40.60
2019-04-06T00:03:08.127Z,40.97
2019-04-06T00:05:38.599Z,38.60
2019-04-06T00:08:09.139Z,39.03
2019-04-06T00:10:39.592Z,41.73
2019-04-06T00:13:10.189Z,40.10
2019-04-06T00:15:41.322Z,38.93
2019-04-06T00:18:11.929Z,40.77
2019-04-06T00:20:42.589Z,39.37
2019-04-06T00:23:13.329Z,41.57
2019-04-06T00:25:45.012Z,40.57
2019-04-06T00:28:15.899Z,40.53
2019-04-06T00:31:01.992Z,40.83
2019-04-06T00:33:32.835Z,41.47
2019-04-06T00:36:03.320Z,40.37
2019-04-06T00:38:34.075Z,40.03
2019-04-06T00:41:04.748Z,40.07
2019-04-06T00:43:35.376Z,40.50
2019-04-06T00:46:07.196Z,39.37
2019-04-06T00:48:37.796Z,39.13
2019-04-06T00:51:08.378Z,39.37
2019-04-06T00:53:39.296Z,39.07
2019-04-06T00:56:10.050Z,39.70
2019-04-06T00:58:40.602Z,40.73
2019-04-06T01:01:11.284Z,39.73
2019-04-06T01:03:41.913Z,38.60
2019-04-06T01:06:12.306Z,36.23
2019-04-06T01:08:42.999Z,34.73
2019-04-06T01:11:13.615Z,37.90
2019-04-06T01:13:44.251Z,38.63
2019-04-06T01:16:15.108Z,38.40
2019-04-06T01:18:46.053Z,39.73
2019-04-06T01:21:17.834Z,37.90
2019-04-06T01:23:48.323Z,37.80
2019-04-06T01:26:18.752Z,40.77
2019-04-06T01:28:49.245Z,39.13
2019-04-06T01:31:19.824Z,38.23
2019-04-06T01:33:50.430Z,38.70
2019-04-06T01:36:20.965Z,40.20
2019-04-06T01:38:51.789Z,37.63
2019-04-06T01:41:24.977Z,40.10
2019-04-06T01:43:55.723Z,36.83
2019-04-06T01:46:26.584Z,37.47
2019-04-06T01:48:57.144Z,38.00
2019-04-06T01:51:27.542Z,38.30
2019-04-06T01:53:58.750Z,39.63
2019-04-06T01:56:29.308Z,39.33
2019-04-06T01:58:59.976Z,39.30
2019-04-06T02:01:34.752Z,37.67
2019-04-06T02:04:05.451Z,38.03
2019-04-06T02:06:38.043Z,37.57
2019-04-06T02:09:08.460Z,39.30
2019-04-06T02:11:38.983Z,39.73
2019-04-06T02:14:09.902Z,38.10
2019-04-06T02:16:41.983Z,38.63
2019-04-06T02:19:12.554Z,39.30
2019-04-06T02:21:43.011Z,39.53
2019-04-06T02:24:13.530Z,39.77
2019-04-06T02:26:44.199Z,40.27
2019-04-06T02:29:14.690Z,37.83
2019-04-06T02:32:00.535Z,38.73
2019-04-06T02:34:49.886Z,39.40
2019-04-06T02:37:30.357Z,39.67
2019-04-06T02:40:31.725Z,39.17
2019-04-06T02:43:11.345Z,38.57
2019-04-06T02:45:41.804Z,38.67
2019-04-06T02:48:12.320Z,40.53
2019-04-06T02:50:43.053Z,38.50
2019-04-06T02:53:13.585Z,34.80
2019-04-06T02:55:43.994Z,39.13
2019-04-06T02:58:14.344Z,37.70
2019-04-06T03:00:45.205Z,41.03
2019-04-06T03:03:15.503Z,41.07
2019-04-06T03:05:46.225Z,40.50
2019-04-06T03:08:16.659Z,41.93
2019-04-06T03:10:47.184Z,41.70
2019-04-06T03:13:17.706Z,43.07
2019-04-06T03:15:50.894Z,41.80
2019-04-06T03:18:21.422Z,42.63
2019-04-06T03:20:51.818Z,42.83
2019-04-06T03:23:25.677Z,39.67
2019-04-06T03:25:56.324Z,41.13
2019-04-06T03:28:27.315Z,41.20
2019-04-06T03:30:57.869Z,44.50
2019-04-06T03:33:28.358Z,42.07
2019-04-06T03:35:59.010Z,39.43
2019-04-06T03:38:32.339Z,39.83
2019-04-06T03:41:02.961Z,40.70
2019-04-06T03:43:33.370Z,40.07
2019-04-06T03:46:04.048Z,41.53
2019-04-06T03:48:34.375Z,39.43
2019-04-06T03:51:04.952Z,41.27
2019-04-06T03:53:35.268Z,39.73
2019-04-06T03:56:05.655Z,38.20
2019-04-06T03:58:35.956Z,38.70
2019-04-06T04:01:06.443Z,42.20
2019-04-06T04:03:36.987Z,40.10
2019-04-06T04:06:07.693Z,39.37
2019-04-06T04:08:38.090Z,36.97
2019-04-06T04:11:08.436Z,38.97
2019-04-06T04:13:38.907Z,39.17
2019-04-06T04:16:09.147Z,35.93
2019-04-06T04:18:39.482Z,38.27
2019-04-06T04:21:11.034Z,39.47
2019-04-06T04:23:41.353Z,37.67
2019-04-06T04:26:11.586Z,38.83
2019-04-06T04:28:41.852Z,36.70
2019-04-06T04:31:12.127Z,36.87
2019-04-06T04:33:42.685Z,36.73
2019-04-06T04:36:13.021Z,37.00
2019-04-06T04:38:43.229Z,36.33
2019-04-06T04:41:14.957Z,36.20
2019-04-06T04:43:45.336Z,38.93
2019-04-06T04:46:15.595Z,37.60
2019-04-06T04:48:50.784Z,36.57
2019-04-06T04:51:22.052Z,35.50
2019-04-06T04:53:53.064Z,36.10
2019-04-06T04:56:24.059Z,37.50
2019-04-06T04:58:55.725Z,34.10
2019-04-06T05:01:26.243Z,38.40
2019-04-06T05:03:56.739Z,36.33
2019-04-06T05:06:27.419Z,36.90
2019-04-06T05:08:59.740Z,36.60
2019-04-06T05:11:30.188Z,34.60
2019-04-06T05:14:39.775Z,33.53
2019-04-06T05:17:10.498Z,34.20
2019-04-06T05:19:43.846Z,33.53
2019-04-06T05:22:14.634Z,33.87
2019-04-06T05:24:45.552Z,35.77
2019-04-06T05:27:16.419Z,32.67
2019-04-06T05:29:47.310Z,35.33
2019-04-06T05:32:18.440Z,34.13
2019-04-06T05:34:49.470Z,33.93
2019-04-06T05:37:20.581Z,35.77
2019-04-06T05:39:51.370Z,35.53
2019-04-06T05:42:21.965Z,35.83
2019-04-06T05:44:52.910Z,35.93
2019-04-06T05:47:23.955Z,34.37
2019-04-06T05:49:54.437Z,34.53
2019-04-06T05:52:25.155Z,35.43
2019-04-06T05:54:55.870Z,34.57
2019-04-06T05:57:26.872Z,34.77
2019-04-06T05:59:57.803Z,36.03
2019-04-06T06:02:28.794Z,36.93
2019-04-06T06:05:00.931Z,35.60
2019-04-06T06:07:32.035Z,36.73
2019-04-06T06:10:02.839Z,38.40
2019-04-06T06:12:33.917Z,36.83
2019-04-06T06:15:05.191Z,37.70
2019-04-06T06:17:36.820Z,37.73
2019-04-06T06:20:08.043Z,38.03
2019-04-06T06:22:40.291Z,38.03
2019-04-06T06:25:11.870Z,38.23
2019-04-06T06:27:42.976Z,37.07
2019-04-06T06:30:14.076Z,39.53
2019-04-06T06:32:44.593Z,40.47
2019-04-06T06:35:15.825Z,39.27
2019-04-06T06:37:47.244Z,40.17
2019-04-06T06:40:18.406Z,39.83
2019-04-06T06:42:49.489Z,39.03
2019-04-06T06:45:20.361Z,37.67
2019-04-06T06:47:51.386Z,38.20
2019-04-06T06:50:22.712Z,36.77
2019-04-06T06:52:53.751Z,42.70
2019-04-06T06:55:26.622Z,45.77
2019-04-06T06:57:57.662Z,37.60
2019-04-06T07:00:28.495Z,40.77
2019-04-06T07:02:59.201Z,40.03
2019-04-06T07:05:30.101Z,40.83
2019-04-06T07:08:00.805Z,42.23
2019-04-06T07:10:32.045Z,40.60
2019-04-06T07:13:02.934Z,43.17
2019-04-06T07:15:34.033Z,39.53
2019-04-06T07:18:05.278Z,38.17
2019-04-06T07:20:36.449Z,41.63
2019-04-06T07:23:08.921Z,43.27
2019-04-06T07:25:40.084Z,42.20
2019-04-06T07:28:11.297Z,42.27
2019-04-06T07:30:42.318Z,44.77
2019-04-06T07:33:13.223Z,41.53
2019-04-06T07:35:43.826Z,38.67
2019-04-06T07:38:14.482Z,40.37
2019-04-06T07:40:44.919Z,38.13
2019-04-06T07:43:16.048Z,39.27
2019-04-06T07:45:47.031Z,36.10
2019-04-06T07:48:18.396Z,37.03
2019-04-06T07:50:49.584Z,38.53
2019-04-06T07:53:20.863Z,38.87
2019-04-06T07:55:52.449Z,39.00
2019-04-06T07:58:23.990Z,37.60
2019-04-06T08:00:58.218Z,40.67
2019-04-06T08:03:29.228Z,37.43
2019-04-06T08:06:00.348Z,38.30
2019-04-06T08:08:31.240Z,39.80
2019-04-06T08:11:01.813Z,35.90
2019-04-06T08:13:32.824Z,36.10
2019-04-06T08:16:04.147Z,39.07
2019-04-06T08:18:34.679Z,42.03
2019-04-06T08:21:05.388Z,36.47
2019-04-06T08:23:36.297Z,41.90
2019-04-06T08:26:07.375Z,37.93
2019-04-06T08:28:38.574Z,39.47
2019-04-06T08:31:09.622Z,40.73
2019-04-06T08:33:40.493Z,36.30
2019-04-06T08:36:11.662Z,40.97
2019-04-06T08:38:42.329Z,36.37
2019-04-06T08:41:13.040Z,41.07
2019-04-06T08:43:43.870Z,39.43
2019-04-06T08:46:14.683Z,36.50
2019-04-06T08:48:45.410Z,39.73
2019-04-06T08:51:16.155Z,39.00
2019-04-06T08:53:46.673Z,42.13
2019-04-06T08:56:17.214Z,41.43
2019-04-06T08:58:47.875Z,34.50
2019-04-06T09:01:18.512Z,41.93
2019-04-06T09:03:49.229Z,36.63
2019-04-06T09:06:23.606Z,42.83
2019-04-06T09:08:54.370Z,38.90
2019-04-06T09:11:25.149Z,39.90
2019-04-06T09:13:56.068Z,45.77
2019-04-06T09:16:26.706Z,45.57
2019-04-06T09:18:57.760Z,46.77
2019-04-06T09:21:28.452Z,48.33
2019-04-06T09:23:59.390Z,51.33
2019-04-06T09:26:29.969Z,42.20
2019-04-06T09:29:01.031Z,43.27
2019-04-06T09:31:32.463Z,39.87
2019-04-06T09:34:03.335Z,41.60
2019-04-06T09:36:33.948Z,39.33
2019-04-06T09:39:06.400Z,37.63
2019-04-06T09:41:37.326Z,42.17
2019-04-06T09:44:11.683Z,40.27
2019-04-06T09:47:00.918Z,42.67
2019-04-06T09:50:05.770Z,54.73
2019-04-06T09:52:46.975Z,44.83
2019-04-06T09:55:33.005Z,50.93
2019-04-06T09:58:26.042Z,44.57
2019-04-06T10:01:16.041Z,43.30
2019-04-06T10:03:55.358Z,41.43
2019-04-06T10:06:38.247Z,43.83
2019-04-06T10:09:46.404Z,40.80
2019-04-06T10:12:34.540Z,43.37
2019-04-06T10:15:23.756Z,49.90
2019-04-06T10:18:16.153Z,50.23
2019-04-06T10:21:04.150Z,51.63
2019-04-06T10:23:56.806Z,54.17
2019-04-06T10:26:44.968Z,49.13
2019-04-06T10:29:33.324Z,50.37
2019-04-06T10:32:28.932Z,47.73
2019-04-06T10:35:15.540Z,51.70
2019-04-06T10:38:14.016Z,51.03
2019-04-06T10:40:55.533Z,52.13
2019-04-06T10:43:37.160Z,43.63
2019-04-06T10:46:26.556Z,48.70
2019-04-06T10:49:09.008Z,45.03
2019-04-06T10:51:53.793Z,40.33
2019-04-06T10:54:33.347Z,40.40
2019-04-06T10:57:23.410Z,43.27
2019-04-06T11:00:03.946Z,46.77
2019-04-06T11:02:53.609Z,44.00
2019-04-06T11:05:59.175Z,45.67
2019-04-06T11:08:47.331Z,44.80
2019-04-06T11:11:25.475Z,45.17
2019-04-06T11:14:18.958Z,43.00
2019-04-06T11:17:12.823Z,43.67
2019-04-06T11:20:17.413Z,44.67
2019-04-06T11:23:11.601Z,38.20
2019-04-06T11:26:04.286Z,39.33
2019-04-06T11:28:44.542Z,37.90
2019-04-06T11:31:38.412Z,37.77
2019-04-06T11:34:29.458Z,38.37
2019-04-06T11:37:17.727Z,41.57
2019-04-06T11:40:16.416Z,37.03
2019-04-06T11:43:04.288Z,35.67
2019-04-06T11:46:02.633Z,35.80
2019-04-06T11:48:51.856Z,34.73
2019-04-06T11:51:45.932Z,33.47
2019-04-06T11:54:43.834Z,35.03
2019-04-06T11:57:38.907Z,33.47
2019-04-06T12:00:28.509Z,35.47
2019-04-06T12:03:07.678Z,35.10
2019-04-06T12:06:01.384Z,32.63
2019-04-06T12:08:51.804Z,34.33
2019-04-06T12:11:41.308Z,35.97
2019-04-06T12:14:17.451Z,36.00
2019-04-06T12:16:53.658Z,35.30
2019-04-06T12:19:33.520Z,34.60
2019-04-06T12:22:23.033Z,32.00
2019-04-06T12:25:18.435Z,31.87
2019-04-06T12:28:07.642Z,31.47
2019-04-06T12:30:55.963Z,33.63
2019-04-06T12:33:51.431Z,36.00
2019-04-06T12:36:52.733Z,33.70
2019-04-06T12:39:27.085Z,31.83
2019-04-06T12:42:24.062Z,32.27
2019-04-06T12:45:13.800Z,33.97
2019-04-06T12:48:21.124Z,31.57
2019-04-06T12:51:13.479Z,32.57
2019-04-06T12:53:55.374Z,30.37
2019-04-06T12:56:43.360Z,31.83
2019-04-06T12:59:41.803Z,31.47
2019-04-06T13:02:24.272Z,31.03
2019-04-06T13:05:14.184Z,49.73
2019-04-06T13:08:03.603Z,41.23
2019-04-06T13:10:56.811Z,37.10
2019-04-06T13:13:46.468Z,38.37
2019-04-06T13:16:38.994Z,40.27
2019-04-06T13:19:26.920Z,35.67
2019-04-06T13:22:14.779Z,34.03
2019-04-06T13:25:00.444Z,33.07
2019-04-06T13:27:52.770Z,30.93
2019-04-06T13:30:34.210Z,32.27
2019-04-06T13:33:14.903Z,31.13
2019-04-06T13:36:03.455Z,30.73
2019-04-06T13:38:53.322Z,26.97
2019-04-06T13:41:42.848Z,27.97
2019-04-06T13:44:32.095Z,27.27
2019-04-06T13:47:24.566Z,27.27
2019-04-06T13:50:08.489Z,26.80
2019-04-06T13:53:03.567Z,26.00
2019-04-06T13:55:59.813Z,27.23
2019-04-06T13:58:48.089Z,27.67
2019-04-06T14:01:39.619Z,26.83
2019-04-06T14:04:28.050Z,22.80
2019-04-06T14:07:16.523Z,23.87
2019-04-06T14:10:14.712Z,23.10
2019-04-06T14:13:19.164Z,23.20
2019-04-06T14:16:26.653Z,32.83
2019-04-06T14:19:07.152Z,25.60
2019-04-06T14:22:06.225Z,32.17
2019-04-06T14:24:59.168Z,57.20
2019-04-06T14:27:43.410Z,24.20
2019-04-06T14:30:31.127Z,38.17
2019-04-06T14:33:15.680Z,22.10
2019-04-06T14:36:14.230Z,20.73
2019-04-06T14:39:12.194Z,21.33
2019-04-06T14:42:09.337Z,23.37
2019-04-06T14:44:49.563Z,20.40
2019-04-06T14:47:41.742Z,20.33
2019-04-06T14:50:24.559Z,28.53
2019-04-06T14:53:08.435Z,24.43
2019-04-06T14:55:58.104Z,18.47
2019-04-06T14:58:59.618Z,16.27
2019-04-06T15:01:57.739Z,16.37
2019-04-06T15:04:38.974Z,14.50
2019-04-06T15:07:34.742Z,13.80
2019-04-06T15:10:43.039Z,15.13
2019-04-06T15:13:32.593Z,14.70
2019-04-06T15:16:18.045Z,15.77
2019-04-06T15:19:06.206Z,15.60
2019-04-06T15:22:01.496Z,15.17
2019-04-06T15:24:55.656Z,16.50
2019-04-06T15:27:38.874Z,14.87
2019-04-06T15:30:22.448Z,15.53
2019-04-06T15:33:01.462Z,17.07
2019-04-06T15:35:49.995Z,16.10
2019-04-06T15:38:48.580Z,15.63
2019-04-06T15:41:56.338Z,13.40
2019-04-06T15:44:36.868Z,14.50
2019-04-06T15:47:32.277Z,14.50
2019-04-06T15:50:17.945Z,14.03
2019-04-06T15:52:53.932Z,13.53
2019-04-06T15:55:40.781Z,14.07
2019-04-06T15:58:30.557Z,15.13
2019-04-06T16:01:19.386Z,15.17
2019-04-06T16:03:58.872Z,16.17
2019-04-06T16:06:39.953Z,15.07
2019-04-06T16:09:39.012Z,15.43
2019-04-06T16:12:33.873Z,16.43
2019-04-06T16:15:19.405Z,16.73
2019-04-06T16:18:00.307Z,16.63
2019-04-06T16:20:46.167Z,17.57
2019-04-06T16:23:27.930Z,17.40
2019-04-06T16:26:26.669Z,18.27
2019-04-06T16:29:15.027Z,17.80
2019-04-06T16:32:13.989Z,16.53
2019-04-06T16:35:02.351Z,18.80
2019-04-06T16:37:49.645Z,17.37
2019-04-06T16:40:37.753Z,18.50
2019-04-06T16:43:32.107Z,18.10
2019-04-06T16:46:19.600Z,18.27
2019-04-06T16:48:57.754Z,18.10
2019-04-06T16:51:51.109Z,18.73
2019-04-06T16:54:52.969Z,18.40
2019-04-06T16:57:42.623Z,17.47
2019-04-06T17:00:34.032Z,18.37
2019-04-06T17:03:13.687Z,18.33
2019-04-06T17:06:03.417Z,18.57
2019-04-06T17:08:46.949Z,18.13
2019-04-06T17:11:35.993Z,17.70
2019-04-06T17:14:28.659Z,18.43
2019-04-06T17:17:18.596Z,18.00
2019-04-06T17:20:14.327Z,17.87
2019-04-06T17:23:09.564Z,17.90
2019-04-06T17:25:49.763Z,18.30
2019-04-06T17:28:45.775Z,17.57
2019-04-06T17:31:30.030Z,16.87
2019-04-06T17:34:09.864Z,17.97
2019-04-06T17:37:02.335Z,17.30
2019-04-06T17:39:48.223Z,18.07
2019-04-06T17:42:40.099Z,18.73
2019-04-06T17:45:30.282Z,17.93
2019-04-06T17:48:19.127Z,18.53
2019-04-06T17:51:14.434Z,17.23
2019-04-06T17:53:58.009Z,17.57
2019-04-06T17:56:46.598Z,17.10
2019-04-06T17:59:36.850Z,17.83
2019-04-06T18:02:30.161Z,18.23
2019-04-06T18:05:18.278Z,16.77
2019-04-06T18:08:08.169Z,16.37
2019-04-06T18:11:00.286Z,17.97
2019-04-06T18:13:48.476Z,19.50
2019-04-06T18:16:21.259Z,17.63
2019-04-06T18:18:52.671Z,17.90
2019-04-06T18:21:23.589Z,17.17
2019-04-06T18:23:54.284Z,18.50
2019-04-06T18:26:25.127Z,19.07
2019-04-06T18:28:56.238Z,18.37
2019-04-06T18:31:52.715Z,18.40
2019-04-06T18:34:23.062Z,20.10
2019-04-06T18:37:10.157Z,19.50
2019-04-06T18:39:40.453Z,20.17
2019-04-06T18:42:10.807Z,20.27
2019-04-06T18:44:44.358Z,19.13
2019-04-06T18:47:15.403Z,20.10
2019-04-06T18:49:46.060Z,18.33
2019-04-06T18:52:16.781Z,18.33
2019-04-06T18:54:47.440Z,18.00
2019-04-06T18:57:17.787Z,18.27
2019-04-06T18:59:48.162Z,19.30
2019-04-06T19:02:18.556Z,19.13
2019-04-06T19:04:48.899Z,19.20
2019-04-06T19:07:19.302Z,20.63
2019-04-06T19:09:49.765Z,19.00
2019-04-06T19:12:20.136Z,18.77
2019-04-06T19:14:50.834Z,20.10
2019-04-06T19:17:21.357Z,20.73
2019-04-06T19:19:51.712Z,20.53
2019-04-06T19:22:22.114Z,21.33
2019-04-06T19:24:52.470Z,22.10
2019-04-06T19:27:22.868Z,21.97
2019-04-06T19:29:53.226Z,21.83
2019-04-06T19:32:23.572Z,20.13
2019-04-06T19:34:54.045Z,22.17
2019-04-06T19:37:24.905Z,20.00
2019-04-06T19:39:56.014Z,20.73
2019-04-06T19:42:26.359Z,20.27
2019-04-06T19:44:59.543Z,21.87
2019-04-06T19:47:30.140Z,20.77
2019-04-06T19:50:00.590Z,18.10
2019-04-06T19:52:31.189Z,20.73
2019-04-06T19:55:01.702Z,20.13
2019-04-06T19:57:32.008Z,18.90
2019-04-06T20:00:02.547Z,18.70
2019-04-06T20:02:33.365Z,18.83
2019-04-06T20:05:04.082Z,18.07
2019-04-06T20:07:34.433Z,18.33
2019-04-06T20:10:05.431Z,17.10
2019-04-06T20:12:36.163Z,18.50
2019-04-06T20:15:08.720Z,17.80
2019-04-06T20:17:39.183Z,17.20
2019-04-06T20:20:09.621Z,17.27
2019-04-06T20:22:40.058Z,17.60
2019-04-06T20:25:10.792Z,17.90
2019-04-06T20:27:41.150Z,16.07
2019-04-06T20:30:12.249Z,16.83
2019-04-06T20:32:45.848Z,17.53
2019-04-06T20:35:16.689Z,17.23
2019-04-06T20:37:47.093Z,16.33
2019-04-06T20:40:17.648Z,17.17
2019-04-06T20:42:51.467Z,16.70
2019-04-06T20:45:22.023Z,17.33
2019-04-06T20:47:55.117Z,17.23
2019-04-06T20:50:25.603Z,16.90
2019-04-06T20:52:55.902Z,16.50
2019-04-06T20:55:26.527Z,16.37
2019-04-06T20:57:57.159Z,16.00
2019-04-06T21:00:27.773Z,16.07
2019-04-06T21:02:58.154Z,16.33
2019-04-06T21:05:28.895Z,17.17
2019-04-06T21:07:59.287Z,16.90
2019-04-06T21:10:29.848Z,16.43
2019-04-06T21:13:00.352Z,15.33
2019-04-06T21:15:30.759Z,16.00
2019-04-06T21:18:01.330Z,16.67
2019-04-06T21:20:31.721Z,15.00
2019-04-06T21:23:02.816Z,15.63
2019-04-06T21:25:33.622Z,15.53
2019-04-06T21:28:04.242Z,15.23
2019-04-06T21:30:34.644Z,16.17
2019-04-06T21:33:04.962Z,14.80
2019-04-06T21:35:36.849Z,16.07
2019-04-06T21:38:07.751Z,15.33
2019-04-06T21:40:38.597Z,16.50
2019-04-06T21:43:09.122Z,15.80
2019-04-06T21:45:39.487Z,16.13
2019-04-06T21:48:10.420Z,15.23
2019-04-06T21:50:40.973Z,15.83
2019-04-06T21:53:12.132Z,14.67
2019-04-06T21:55:42.615Z,16.00
2019-04-06T21:58:13.059Z,15.53
2019-04-06T22:00:55.070Z,16.90
2019-04-06T22:03:28.701Z,16.23
2019-04-06T22:06:01.399Z,16.17
2019-04-06T22:08:31.791Z,15.43
2019-04-06T22:11:02.693Z,16.30
2019-04-06T22:13:33.044Z,16.03
2019-04-06T22:16:03.345Z,16.53
2019-04-06T22:18:33.964Z,16.13
2019-04-06T22:21:04.727Z,16.50
2019-04-06T22:23:42.023Z,16.37
2019-04-06T22:26:08.078Z,16.07
2019-04-06T22:28:38.507Z,16.33
2019-04-06T22:31:08.802Z,16.23
2019-04-06T22:33:39.126Z,17.27
2019-04-06T22:36:09.992Z,16.87
2019-04-06T22:38:41.553Z,17.57
2019-04-06T22:41:12.135Z,16.07
2019-04-06T22:43:42.395Z,17.67
2019-04-06T22:46:12.641Z,16.60
2019-04-06T22:48:42.992Z,15.60
2019-04-06T22:51:13.839Z,16.50
2019-04-06T22:53:47.568Z,15.97
2019-04-06T22:56:18.077Z,15.37
2019-04-06T22:58:48.413Z,15.93
2019-04-06T23:01:18.922Z,17.13
2019-04-06T23:04:20.378Z,17.60
2019-04-06T23:06:55.368Z,16.83
2019-04-06T23:09:25.805Z,15.97
2019-04-06T23:11:56.115Z,15.90
2019-04-06T23:14:26.416Z,17.27
2019-04-06T23:16:56.715Z,16.03
2019-04-06T23:19:27.119Z,15.90
2019-04-06T23:21:57.570Z,16.93
2019-04-06T23:24:29.466Z,16.83
2019-04-06T23:26:59.703Z,17.23
2019-04-06T23:29:29.968Z,17.40
2019-04-06T23:32:00.206Z,16.57
2019-04-06T23:34:30.440Z,16.43
2019-04-06T23:37:00.816Z,16.37
2019-04-06T23:39:31.049Z,16.50
2019-04-06T23:42:01.513Z,17.20
2019-04-06T23:44:31.849Z,17.40
2019-04-06T23:47:02.164Z,17.90
2019-04-06T23:49:32.801Z,17.23
2019-04-06T23:52:03.700Z,16.97
2019-04-06T23:54:34.788Z,18.17
2019-04-06T23:57:05.163Z,16.57
2019-04-06T23:59:36.162Z,17.20
